首页
METAR-TAF:

METAR-TAF

机场 :

奥利弗·坦博国际机场

约翰内斯堡, 南非共和國

纬度: 26-08S, 经度: 028-14E, 海拔: 1694米

当前天气观测

该预报发布于39分钟前的14:00 UTC
风速6节,风向,在西北东北之间变化
温度 19°C
湿度 24%
气压 1031 hPa
能见度10公里或以上
1500米以下无云,无积雨云

METAR: FAOR 231400Z 36006KT 320V040 CAVOK 19/M02 Q1031 NOSIG

时间: 16:39 (14:39 UTC)

预报

该预报发布于4小时和39分钟前的10:00 UTC
预报有效从23日的 12点(UTC)到 24日的 18点(UTC)
风速10节,风向东转东北
能见度10公里或以上
1500米以下无云,无积雨云
成为
从 23日的 15点(UTC)到 23日的 17点(UTC)
风速12节,风向

TAF: FAOR 231000Z 2312/2418 06010KT CAVOK BECMG 2315/2317 35012KT TX23/2313Z TN08/2404Z

超过4000个机场的气象观测和天气预报(METAR&TAF报告)。

可查询的气象台以黄色和红色小点在地图上表示。

将鼠标移到小点上方,可查看气象台名称。

然后点击查看天气观测和预报。

如需切换地图:点击带黑十字的绿色按钮放大地图;点击带横线的绿色按钮缩小地图;或者点击绿色箭头查看邻近地区的地图。


METAR-TAF: